Time;durP1;ratioP1;P1;durP2;ratioP2;P2;SDS_P1;SDS_P2;PMS_P1;PMS_P2;Temp;Humidity;BMP_temperature;BMP_pressure;BME280_temperature;BME280_humidity;BME280_pressure;Samples;Min_cycle;Max_cycle;Signal;HPM_P1;HPM_P2
2021/12/05 00:18:31;;;;;;;2.03;1.10;;;4.00;97.10;;;;;;5034832;28;20277;-88
2021/12/05 00:23:46;;;;;;;1.10;1.00;;;4.30;96.30;;;;;;5038103;28;20317;-87
2021/12/05 00:26:18;;;;;;;2.07;1.40;;;4.10;96.60;;;;;;5032917;28;20238;-88
2021/12/05 00:31:47;;;;;;;3.47;1.30;;;4.10;96.80;;;;;;5047586;28;20253;-88
2021/12/05 00:34:34;;;;;;;1.43;1.10;;;4.10;96.80;;;;;;5036743;28;20202;-87
2021/12/05 00:45:50;;;;;;;3.20;1.50;;;3.90;96.60;;;;;;5022176;28;20276;-88
2021/12/05 00:48:55;;;;;;;1.37;1.10;;;4.00;96.80;;;;;;5022822;28;20635;-89
2021/12/05 00:57:16;;;;;;;1.30;1.17;;;4.00;95.40;;;;;;5052777;28;20297;-87
2021/12/05 01:00:00;;;;;;;1.40;1.10;;;4.00;95.00;;;;;;5027977;28;20210;-88
2021/12/05 01:02:43;;;;;;;2.77;1.17;;;3.90;95.00;;;;;;5034633;28;20230;-87
2021/12/05 01:11:14;;;;;;;2.10;1.40;;;3.70;94.80;;;;;;5036880;28;20198;-89
2021/12/05 01:13:55;;;;;;;2.77;1.07;;;3.80;94.80;;;;;;5044541;28;20199;-90
2021/12/05 01:16:27;;;;;;;2.87;1.10;;;3.80;94.80;;;;;;5034926;28;20229;-88
2021/12/05 01:18:54;;;;;;;3.03;1.07;;;3.80;94.80;;;;;;5033566;28;20309;-89
2021/12/05 01:21:24;;;;;;;1.60;1.33;;;3.80;94.80;;;;;;5032955;28;20598;-89
2021/12/05 01:23:59;;;;;;;3.03;1.10;;;3.80;94.80;;;;;;5030305;28;20198;-90
2021/12/05 01:26:30;;;;;;;2.27;1.30;;;3.70;94.80;;;;;;5031597;28;20711;-89
2021/12/05 01:31:52;;;;;;;0.90;0.90;;;3.80;94.80;;;;;;5028207;28;20230;-89
2021/12/05 01:34:34;;;;;;;2.50;1.13;;;3.70;94.80;;;;;;5032220;28;20194;-88
2021/12/05 01:37:11;;;;;;;3.73;1.27;;;3.60;95.10;;;;;;5024853;28;20222;-88
2021/12/05 01:39:52;;;;;;;2.90;1.10;;;3.60;95.40;;;;;;5033784;28;20198;-89
2021/12/05 01:45:47;;;;;;;1.67;1.10;;;3.60;95.50;;;;;;5008088;28;20599;-90
2021/12/05 01:59:38;;;;;;;2.20;1.20;;;3.70;94.80;;;;;;5022242;28;20671;-90
2021/12/05 02:02:50;;;;;;;1.73;1.10;;;3.80;94.80;;;;;;5029914;28;20245;-89
2021/12/05 02:08:35;;;;;;;1.03;0.93;;;3.80;94.80;;;;;;5033074;28;20238;-88
2021/12/05 02:30:57;;;;;;;2.30;0.93;;;4.00;93.90;;;;;;5032920;28;20253;-89
2021/12/05 02:36:33;;;;;;;1.57;0.93;;;4.00;94.10;;;;;;5028402;28;20592;-89
2021/12/05 02:39:12;;;;;;;1.33;0.90;;;4.10;94.20;;;;;;5032419;28;20195;-88
2021/12/05 02:41:41;;;;;;;2.03;1.20;;;4.30;94.30;;;;;;5028598;28;20685;-89
2021/12/05 02:44:14;;;;;;;2.50;1.03;;;4.10;94.90;;;;;;5032171;28;20222;-89
2021/12/05 02:46:44;;;;;;;3.03;1.10;;;3.90;94.90;;;;;;5027862;28;20226;-88
2021/12/05 02:49:14;;;;;;;2.30;1.10;;;3.90;95.50;;;;;;5032143;28;20203;-89
2021/12/05 02:51:41;;;;;;;1.83;1.10;;;3.90;95.70;;;;;;5017930;28;20703;-88
2021/12/05 02:54:14;;;;;;;1.30;1.00;;;3.90;95.70;;;;;;5032163;28;20226;-88
2021/12/05 02:56:46;;;;;;;1.10;1.00;;;4.00;95.80;;;;;;5026708;28;20249;-89
2021/12/05 02:59:24;;;;;;;1.27;1.10;;;4.10;95.70;;;;;;5024226;28;20207;-89
2021/12/05 03:01:57;;;;;;;2.20;0.97;;;4.20;95.50;;;;;;5031896;28;20232;-88
2021/12/05 03:04:30;;;;;;;1.17;0.80;;;4.30;95.40;;;;;;5022585;28;20229;-89
2021/12/05 03:06:59;;;;;;;0.87;0.87;;;4.30;95.20;;;;;;5031035;28;20242;-89
2021/12/05 03:09:27;;;;;;;1.10;1.00;;;4.30;94.90;;;;;;5031574;28;20270;-88
2021/12/05 03:11:54;;;;;;;1.33;1.00;;;4.30;94.90;;;;;;5031599;28;20233;-89
2021/12/05 03:14:21;;;;;;;3.50;1.30;;;4.30;94.90;;;;;;5030691;28;20203;-88
2021/12/05 03:16:49;;;;;;;1.77;1.20;;;4.30;94.90;;;;;;5031616;28;20231;-89
2021/12/05 03:19:18;;;;;;;2.53;1.37;;;4.20;94.90;;;;;;5032273;28;20201;-89
2021/12/05 03:21:48;;;;;;;1.77;0.90;;;4.00;94.90;;;;;;5032258;28;20238;-89
2021/12/05 03:24:17;;;;;;;3.40;1.07;;;3.90;94.80;;;;;;5032393;28;20207;-89
2021/12/05 03:26:48;;;;;;;0.80;0.80;;;3.80;94.80;;;;;;5031450;28;20233;-89
2021/12/05 03:29:18;;;;;;;1.17;0.90;;;3.80;94.80;;;;;;5029375;28;20209;-89
2021/12/05 03:31:46;;;;;;;3.60;1.20;;;3.80;94.80;;;;;;5031734;28;20699;-89
2021/12/05 03:34:16;;;;;;;1.73;1.00;;;3.70;94.40;;;;;;5032944;28;20567;-89
2021/12/05 03:36:47;;;;;;;2.07;1.10;;;3.70;94.00;;;;;;5036417;28;20241;-89
2021/12/05 03:39:14;;;;;;;1.17;1.00;;;3.60;93.60;;;;;;5031604;28;20203;-88
2021/12/05 03:41:42;;;;;;;3.07;1.10;;;3.60;93.60;;;;;;5036453;28;20238;-89
2021/12/05 03:44:13;;;;;;;2.60;1.13;;;3.50;93.20;;;;;;5034922;28;20693;-89
2021/12/05 03:46:41;;;;;;;1.03;0.90;;;3.50;93.50;;;;;;5034412;28;20230;-88
2021/12/05 03:49:11;;;;;;;4.00;1.10;;;3.60;93.40;;;;;;5040074;28;20202;-90
2021/12/05 03:51:41;;;;;;;2.40;1.00;;;3.70;92.80;;;;;;5043722;28;20230;-88
2021/12/05 03:54:09;;;;;;;2.20;0.90;;;3.80;92.60;;;;;;5041327;28;20195;-90
2021/12/05 03:56:37;;;;;;;1.80;0.83;;;3.60;92.40;;;;;;5042490;28;20313;-89
2021/12/05 03:59:07;;;;;;;2.13;0.97;;;3.60;92.20;;;;;;5035927;28;20207;-89
2021/12/05 04:01:36;;;;;;;3.57;1.00;;;3.60;91.40;;;;;;5034815;28;20226;-88
2021/12/05 04:04:04;;;;;;;1.47;0.90;;;3.40;91.70;;;;;;5037850;28;20641;-89
2021/12/05 04:06:30;;;;;;;3.07;1.10;;;3.40;92.20;;;;;;5033802;28;20236;-90
2021/12/05 04:09:00;;;;;;;2.50;1.07;;;3.50;92.10;;;;;;5035760;28;20195;-89
2021/12/05 04:11:34;;;;;;;3.33;0.93;;;3.40;91.70;;;;;;5032989;28;20249;-88
2021/12/05 04:14:01;;;;;;;4.50;1.20;;;3.50;91.80;;;;;;5035374;28;20298;-89
2021/12/05 04:16:28;;;;;;;3.10;0.83;;;3.40;90.90;;;;;;5034060;28;20237;-89
2021/12/05 04:18:56;;;;;;;4.57;1.43;;;3.40;91.20;;;;;;5035401;28;20210;-90
2021/12/05 04:21:23;;;;;;;1.67;0.93;;;3.30;91.20;;;;;;5035345;28;20307;-90
2021/12/05 04:23:50;;;;;;;2.40;0.97;;;3.30;91.40;;;;;;5036699;28;20194;-87
2021/12/05 04:26:18;;;;;;;2.40;1.07;;;3.30;91.10;;;;;;5035314;28;20237;-88
2021/12/05 04:28:46;;;;;;;4.70;0.93;;;3.30;91.20;;;;;;5036358;28;20208;-88
2021/12/05 04:31:14;;;;;;;1.90;1.10;;;3.30;91.10;;;;;;5035271;28;20226;-87
2021/12/05 04:33:41;;;;;;;1.33;1.00;;;3.20;91.20;;;;;;5035516;28;20209;-88
2021/12/05 04:36:10;;;;;;;4.90;1.13;;;3.10;91.40;;;;;;5035097;28;20230;-89
2021/12/05 04:38:37;;;;;;;2.17;0.80;;;3.20;91.70;;;;;;5035787;28;20202;-87
2021/12/05 04:41:04;;;;;;;4.53;1.13;;;3.10;92.00;;;;;;5034779;28;20195;-87
2021/12/05 04:43:36;;;;;;;2.27;0.90;;;3.10;92.00;;;;;;5035055;28;20219;-89
2021/12/05 04:46:04;;;;;;;2.47;1.20;;;3.10;92.10;;;;;;5035267;28;20566;-88
2021/12/05 04:48:31;;;;;;;4.13;0.93;;;3.20;92.40;;;;;;5035256;28;20221;-88
2021/12/05 04:50:58;;;;;;;2.93;1.23;;;3.20;92.30;;;;;;5023650;28;20577;-88
2021/12/05 04:53:27;;;;;;;1.47;1.10;;;3.30;92.30;;;;;;5025405;28;20206;-89
2021/12/05 04:55:54;;;;;;;2.33;1.10;;;3.40;92.20;;;;;;5034937;28;20211;-89
2021/12/05 04:58:21;;;;;;;1.90;1.10;;;3.40;92.20;;;;;;5034901;28;21031;-90
2021/12/05 05:00:49;;;;;;;2.77;1.30;;;3.30;92.20;;;;;;5046717;28;20204;-87
2021/12/05 05:03:17;;;;;;;2.93;1.17;;;3.40;92.30;;;;;;5034857;28;20206;-88
2021/12/05 05:05:50;;;;;;;3.17;1.20;;;3.40;92.40;;;;;;5034543;28;20219;-87
2021/12/05 05:08:17;;;;;;;3.03;1.47;;;3.40;92.40;;;;;;5034910;28;20226;-87
2021/12/05 05:10:47;;;;;;;3.53;1.20;;;3.40;92.60;;;;;;5034988;28;20210;-87
2021/12/05 05:13:14;;;;;;;3.17;1.30;;;3.40;92.50;;;;;;5034998;28;20195;-87
2021/12/05 05:15:41;;;;;;;3.97;1.10;;;3.30;92.70;;;;;;5020793;28;20214;-88
2021/12/05 05:18:10;;;;;;;2.13;1.10;;;3.20;92.90;;;;;;5034311;28;20217;-88
2021/12/05 05:20:54;;;;;;;3.17;1.27;;;3.20;93.10;;;;;;5034692;28;20293;-89
2021/12/05 05:23:39;;;;;;;2.73;1.20;;;3.20;92.80;;;;;;5034648;28;20222;-87
2021/12/05 05:40:19;;;;;;;3.80;1.30;;;3.30;93.40;;;;;;5023749;28;20229;-87
2021/12/05 05:51:09;;;;;;;2.17;1.30;;;3.30;93.70;;;;;;5033351;28;20612;-87
2021/12/05 05:53:36;;;;;;;4.10;1.40;;;3.20;93.80;;;;;;5038145;28;20564;-87
2021/12/05 05:56:05;;;;;;;5.40;1.73;;;3.20;94.20;;;;;;5038653;28;20289;-87
2021/12/05 05:58:42;;;;;;;2.43;1.33;;;3.20;94.40;;;;;;5016787;28;20214;-89
2021/12/05 06:01:18;;;;;;;3.00;1.40;;;3.10;94.20;;;;;;5032896;28;20681;-90
2021/12/05 06:03:45;;;;;;;3.80;1.27;;;3.00;94.20;;;;;;5019810;28;20206;-89
2021/12/05 06:06:15;;;;;;;2.00;1.20;;;3.00;94.60;;;;;;5035917;28;20233;-89
2021/12/05 06:08:43;;;;;;;1.70;1.20;;;3.00;94.60;;;;;;5034261;28;20194;-89
2021/12/05 06:11:13;;;;;;;2.87;1.10;;;3.10;94.00;;;;;;5042156;28;20237;-89
2021/12/05 06:13:42;;;;;;;3.07;1.20;;;3.20;94.00;;;;;;5038581;28;20197;-88
2021/12/05 06:16:11;;;;;;;2.20;1.07;;;3.20;93.90;;;;;;5033327;28;20258;-89
2021/12/05 06:18:39;;;;;;;2.70;1.10;;;3.10;94.10;;;;;;5034308;28;20643;-88
2021/12/05 06:21:07;;;;;;;2.27;1.40;;;3.00;94.50;;;;;;5032946;28;20253;-88
2021/12/05 06:23:35;;;;;;;2.67;1.13;;;3.10;94.70;;;;;;5026042;28;20225;-88
2021/12/05 06:26:02;;;;;;;2.93;1.30;;;3.20;94.70;;;;;;5033528;28;20230;-89
2021/12/05 06:28:33;;;;;;;3.80;1.50;;;3.20;94.10;;;;;;5034024;28;20202;-89
2021/12/05 06:31:10;;;;;;;5.87;1.60;;;3.30;93.60;;;;;;5023547;28;20256;-89
2021/12/05 06:39:23;;;;;;;5.63;1.40;;;3.30;93.70;;;;;;5034533;28;20670;-90
2021/12/05 06:42:00;;;;;;;2.67;1.10;;;3.20;94.10;;;;;;5022924;28;20222;-90
2021/12/05 06:47:14;;;;;;;4.87;1.40;;;3.20;94.10;;;;;;5027605;28;20237;-88
2021/12/05 06:49:43;;;;;;;2.53;1.40;;;3.10;94.00;;;;;;5032536;28;20247;-89
2021/12/05 06:52:11;;;;;;;3.23;1.40;;;3.20;93.90;;;;;;5032580;28;20241;-88
2021/12/05 06:54:39;;;;;;;3.33;1.70;;;3.20;94.00;;;;;;5035971;28;20663;-88
2021/12/05 06:57:07;;;;;;;3.33;1.40;;;3.30;93.80;;;;;;5031184;28;20229;-90
2021/12/05 06:59:37;;;;;;;2.03;1.20;;;3.30;93.60;;;;;;5040589;28;20217;-89
2021/12/05 07:02:05;;;;;;;5.03;1.40;;;3.20;93.80;;;;;;5033425;28;20230;-88
2021/12/05 07:07:36;;;;;;;3.60;1.23;;;3.30;93.80;;;;;;5032924;28;20234;-88
2021/12/05 07:10:28;;;;;;;3.40;1.50;;;3.40;93.50;;;;;;5033670;28;20656;-88
2021/12/05 07:15:43;;;;;;;4.50;1.87;;;3.40;93.50;;;;;;4974957;28;20205;-90
2021/12/05 07:23:49;;;;;;;2.87;1.53;;;3.20;93.70;;;;;;5037168;28;20206;-88
2021/12/05 07:26:23;;;;;;;5.43;1.43;;;3.20;94.00;;;;;;5032785;28;20225;-89
2021/12/05 07:40:46;;;;;;;3.73;1.63;;;3.40;93.40;;;;;;5037329;28;20190;-88
2021/12/05 07:45:54;;;;;;;3.50;1.23;;;3.50;93.50;;;;;;5322041;23;20251;-89
2021/12/05 07:48:26;;;;;;;3.30;1.60;;;3.70;92.80;;;;;;4976048;28;20216;-90
2021/12/05 07:51:04;;;;;;;3.33;1.30;;;3.80;92.60;;;;;;4974993;28;20676;-89
2021/12/05 07:53:41;;;;;;;4.70;1.63;;;3.80;92.30;;;;;;4971578;28;20207;-88
2021/12/05 07:56:14;;;;;;;4.03;1.50;;;3.90;92.30;;;;;;4982721;28;20400;-88
2021/12/05 07:58:56;;;;;;;2.50;1.30;;;3.90;92.30;;;;;;4976363;28;20196;-88
2021/12/05 08:15:14;;;;;;;3.30;1.50;;;3.80;92.30;;;;;;4979152;28;20200;-88
2021/12/05 08:17:49;;;;;;;3.40;1.30;;;3.90;91.90;;;;;;4976297;28;20316;-89
2021/12/05 08:20:16;;;;;;;3.30;1.30;;;3.90;91.80;;;;;;4977924;28;20286;-89
2021/12/05 08:22:43;;;;;;;2.90;1.43;;;3.90;92.20;;;;;;4970143;28;20283;-88
2021/12/05 08:25:13;;;;;;;4.17;1.70;;;3.90;92.30;;;;;;4973578;28;20197;-89
2021/12/05 08:27:46;;;;;;;2.03;1.57;;;3.80;92.10;;;;;;4981291;28;20224;-90
2021/12/05 08:30:19;;;;;;;2.50;1.40;;;3.90;92.40;;;;;;4988113;28;20200;-88
2021/12/05 08:33:08;;;;;;;4.30;1.40;;;4.00;92.00;;;;;;4985371;28;20243;-89
2021/12/05 08:44:10;;;;;;;1.87;1.40;;;4.00;91.30;;;;;;4970931;28;20269;-88
2021/12/05 09:19:45;;;;;;;2.73;1.40;;;4.80;88.90;;;;;;4981290;28;20208;-87
2021/12/05 09:20:40;;;;;;;2.60;1.20;;;5.50;84.80;;;;;;4968539;28;20216;-89
2021/12/05 10:44:43;;;;;;;2.73;1.50;;;6.10;70.80;;;;;;5600991;22;21779;-91
2021/12/05 10:47:10;;;;;;;4.70;1.27;;;6.30;71.20;;;;;;5030082;28;20222;-93
2021/12/05 10:49:37;;;;;;;3.40;1.57;;;6.30;71.10;;;;;;5037050;28;20231;-91
2021/12/05 10:55:29;;;;;;;2.30;1.30;;;6.00;75.10;;;;;;5028110;28;20197;-92
2021/12/05 11:01:32;;;;;;;3.30;1.87;;;6.40;71.20;;;;;;5042130;28;20196;-88
2021/12/05 11:04:02;;;;;;;5.60;1.30;;;6.50;70.00;;;;;;5036921;28;20717;-86
2021/12/05 11:06:44;;;;;;;2.87;1.37;;;6.50;71.30;;;;;;5042360;28;20206;-86
2021/12/05 11:09:15;;;;;;;2.80;1.10;;;6.60;67.00;;;;;;5043947;28;20202;-86
2021/12/05 11:11:44;;;;;;;2.97;1.43;;;6.60;66.30;;;;;;5035156;28;20253;-87
2021/12/05 11:14:15;;;;;;;2.67;1.57;;;6.50;66.50;;;;;;5031214;28;20283;-92
2021/12/05 11:16:54;;;;;;;3.60;1.57;;;6.40;69.90;;;;;;5032310;28;20231;-88
2021/12/05 11:19:25;;;;;;;2.57;1.33;;;6.60;71.50;;;;;;5037544;28;20194;-91
2021/12/05 11:22:16;;;;;;;1.80;1.30;;;6.70;68.60;;;;;;5041239;28;20314;-89
2021/12/05 11:24:47;;;;;;;2.47;1.30;;;6.70;66.70;;;;;;5036667;28;20261;-89
2021/12/05 11:27:30;;;;;;;7.07;1.43;;;6.70;63.40;;;;;;5037511;28;20566;-90
2021/12/05 11:30:03;;;;;;;7.45;1.40;;;6.70;65.20;;;;;;5017723;28;20276;-91
2021/12/05 11:32:38;;;;;;;2.07;1.00;;;6.70;62.00;;;;;;5036946;28;20233;-84
2021/12/05 11:36:02;;;;;;;3.70;1.13;;;6.50;67.30;;;;;;5036370;28;20195;-89
2021/12/05 11:39:19;;;;;;;2.40;1.20;;;6.60;67.50;;;;;;5026548;28;20639;-90
2021/12/05 11:41:46;;;;;;;2.70;1.20;;;6.70;66.10;;;;;;5040297;28;20720;-90
2021/12/05 11:44:19;;;;;;;3.43;1.17;;;6.70;66.50;;;;;;5036817;28;20229;-92
2021/12/05 11:50:48;;;;;;;2.60;1.30;;;6.60;66.60;;;;;;5036756;28;20236;-89
2021/12/05 11:53:15;;;;;;;3.60;1.40;;;6.60;68.60;;;;;;5035239;28;20238;-89
2021/12/05 11:55:43;;;;;;;5.50;1.80;;;6.70;65.60;;;;;;5035831;28;20206;-92
2021/12/05 12:01:06;;;;;;;3.50;1.70;;;6.60;64.10;;;;;;5020457;28;20245;-90
2021/12/05 12:03:35;;;;;;;3.43;1.40;;;6.40;67.80;;;;;;5042851;28;20187;-91
2021/12/05 12:06:04;;;;;;;2.17;1.33;;;6.20;66.10;;;;;;5032935;28;20208;-87
2021/12/05 12:08:31;;;;;;;2.93;1.33;;;6.00;66.90;;;;;;5034534;28;20559;-88
2021/12/05 12:11:02;;;;;;;5.00;1.57;;;6.10;65.20;;;;;;5029804;28;20286;-88
2021/12/05 12:13:34;;;;;;;3.90;1.57;;;6.10;61.50;;;;;;5031585;28;20197;-88
2021/12/05 12:16:07;;;;;;;2.97;1.80;;;6.10;62.60;;;;;;5030263;28;20199;-89
2021/12/05 12:18:36;;;;;;;5.83;1.60;;;6.00;65.00;;;;;;5035483;28;20278;-88
2021/12/05 12:21:08;;;;;;;5.67;2.00;;;5.90;63.50;;;;;;5030816;28;20198;-91
2021/12/05 12:23:38;;;;;;;3.90;1.60;;;5.80;64.10;;;;;;5035285;28;20210;-92
2021/12/05 12:26:13;;;;;;;2.60;1.60;;;5.80;67.60;;;;;;5031973;28;20603;-92
2021/12/05 12:28:44;;;;;;;2.93;1.40;;;5.70;66.90;;;;;;5032650;28;20190;-93
2021/12/05 12:33:58;;;;;;;2.30;1.40;;;5.90;61.80;;;;;;5022678;28;20210;-94
2021/12/05 12:36:39;;;;;;;3.10;1.43;;;6.10;62.00;;;;;;5032984;28;20230;-92
2021/12/05 12:39:24;;;;;;;1.50;1.10;;;6.10;61.20;;;;;;5009204;28;20573;-91
2021/12/05 12:42:19;;;;;;;2.23;1.43;;;6.10;60.10;;;;;;5019416;28;20226;-93
2021/12/05 12:45:15;;;;;;;4.30;1.80;;;6.10;60.80;;;;;;5034052;28;20222;-92
2021/12/05 12:47:44;;;;;;;2.77;1.13;;;6.10;60.90;;;;;;5016748;28;20246;-88
2021/12/05 12:53:37;;;;;;;2.67;1.37;;;6.20;60.00;;;;;;4957808;28;20654;-86
2021/12/05 12:56:09;;;;;;;2.50;1.47;;;6.10;59.10;;;;;;5035070;28;20225;-87
2021/12/05 12:58:59;;;;;;;4.57;1.50;;;6.20;59.70;;;;;;5029257;28;20522;-87
2021/12/05 13:04:34;;;;;;;4.00;1.67;;;6.10;61.40;;;;;;5040855;28;20186;-93
2021/12/05 13:10:08;;;;;;;3.10;1.50;;;6.20;62.00;;;;;;5028831;28;20191;-89
2021/12/05 13:12:51;;;;;;;2.77;1.40;;;6.20;62.60;;;;;;5030227;28;20681;-90
2021/12/05 13:15:28;;;;;;;4.57;1.47;;;6.30;60.30;;;;;;5025052;28;20263;-88
2021/12/05 13:17:57;;;;;;;5.13;1.33;;;6.30;61.20;;;;;;5023488;28;20716;-87
2021/12/05 13:20:28;;;;;;;1.90;1.40;;;6.30;61.20;;;;;;5022272;28;20202;-87
2021/12/05 13:29:15;;;;;;;4.67;1.60;;;6.40;59.60;;;;;;5025450;28;20226;-87
2021/12/05 13:31:50;;;;;;;3.10;1.63;;;6.30;59.50;;;;;;5014888;28;20230;-90
2021/12/05 13:42:00;;;;;;;3.87;2.00;;;6.20;59.70;;;;;;5033264;28;20631;-89
2021/12/05 13:49:38;;;;;;;2.87;1.90;;;5.70;68.70;;;;;;5369027;22;20245;-87
2021/12/05 13:52:34;;;;;;;3.63;1.67;;;5.70;70.40;;;;;;5053205;28;20283;-88
2021/12/05 14:01:51;;;;;;;5.80;2.40;;;5.60;75.10;;;;;;5055111;28;20272;-87
2021/12/05 14:04:27;;;;;;;4.63;2.40;;;5.50;76.30;;;;;;5037529;28;20642;-86
2021/12/05 14:06:58;;;;;;;5.87;2.50;;;5.50;78.10;;;;;;5051866;28;20226;-87
2021/12/05 14:09:37;;;;;;;4.37;2.27;;;5.70;77.90;;;;;;5041256;28;20607;-87
2021/12/05 14:12:10;;;;;;;7.07;2.77;;;5.70;77.40;;;;;;5033059;28;20228;-86
2021/12/05 14:14:40;;;;;;;5.90;2.60;;;5.70;77.00;;;;;;5038627;28;20530;-87
2021/12/05 14:17:13;;;;;;;3.07;1.50;;;5.80;70.70;;;;;;5031589;28;20233;-87
2021/12/05 14:19:42;;;;;;;4.93;2.37;;;5.60;73.90;;;;;;5034786;28;20198;-87
2021/12/05 14:22:13;;;;;;;4.90;1.87;;;5.60;70.40;;;;;;5046445;28;20698;-87
2021/12/05 14:24:42;;;;;;;2.60;1.43;;;5.50;73.60;;;;;;5037510;28;20201;-86
2021/12/05 14:27:55;;;;;;;6.17;2.07;;;5.50;75.00;;;;;;5042549;28;20229;-89
2021/12/05 14:30:24;;;;;;;7.80;3.20;;;5.60;75.80;;;;;;5029197;28;20549;-84
2021/12/05 14:32:58;;;;;;;4.33;1.50;;;5.30;76.40;;;;;;5035987;28;20222;-83
2021/12/05 14:35:28;;;;;;;5.33;2.70;;;5.20;76.70;;;;;;5035107;28;20689;-84
2021/12/05 14:37:57;;;;;;;2.73;1.77;;;5.20;78.70;;;;;;5033811;28;20237;-83
2021/12/05 14:40:30;;;;;;;3.70;2.00;;;5.00;79.00;;;;;;5036380;28;20639;-84
2021/12/05 14:43:00;;;;;;;5.17;1.70;;;5.00;80.50;;;;;;5032702;28;20226;-88
2021/12/05 14:45:29;;;;;;;5.00;1.70;;;5.00;80.10;;;;;;5029433;28;20202;-84
2021/12/05 14:48:02;;;;;;;5.10;2.30;;;4.60;86.00;;;;;;5031425;28;20239;-86
2021/12/05 14:50:31;;;;;;;2.10;1.60;;;4.50;90.00;;;;;;5030151;28;20648;-84
2021/12/05 14:53:02;;;;;;;2.10;1.60;;;4.50;90.10;;;;;;5033509;28;20230;-83
2021/12/05 14:55:33;;;;;;;5.00;2.30;;;4.50;90.90;;;;;;5030450;28;20915;-83
2021/12/05 14:58:02;;;;;;;3.30;1.93;;;4.50;91.40;;;;;;5034333;28;20233;-83
2021/12/05 15:00:33;;;;;;;4.67;2.17;;;4.60;91.20;;;;;;5034003;28;20303;-86
2021/12/05 15:03:04;;;;;;;4.63;2.33;;;4.50;91.60;;;;;;5035527;28;20194;-84
2021/12/05 15:05:38;;;;;;;6.40;2.70;;;4.50;92.30;;;;;;5034152;28;20760;-87
2021/12/05 15:08:07;;;;;;;6.10;2.97;;;4.60;92.20;;;;;;5032117;28;20222;-85
2021/12/05 15:10:44;;;;;;;3.40;2.23;;;4.60;92.30;;;;;;5030793;28;20202;-83
2021/12/05 15:17:03;;;;;;;3.80;2.57;;;4.40;91.80;;;;;;5035442;28;20288;-81
2021/12/05 15:19:31;;;;;;;4.73;2.83;;;4.10;92.30;;;;;;5036017;28;20187;-83
2021/12/05 15:21:59;;;;;;;4.13;2.27;;;4.00;92.70;;;;;;5034686;28;20242;-84
2021/12/05 15:24:29;;;;;;;4.43;2.37;;;4.00;93.30;;;;;;5026439;28;20203;-82
2021/12/05 15:26:58;;;;;;;3.73;2.53;;;3.90;93.50;;;;;;5034457;28;20218;-84
2021/12/05 15:29:26;;;;;;;5.20;2.40;;;3.80;93.80;;;;;;5047582;28;20209;-82
2021/12/05 15:31:54;;;;;;;6.67;2.50;;;3.80;94.10;;;;;;5054153;28;20230;-83
2021/12/05 15:34:24;;;;;;;3.67;2.33;;;3.80;94.00;;;;;;5040050;28;20213;-82
2021/12/05 15:36:54;;;;;;;4.87;2.40;;;3.80;93.80;;;;;;5031839;28;20230;-83
2021/12/05 15:39:23;;;;;;;4.27;2.20;;;3.70;94.00;;;;;;5039798;28;20198;-81
2021/12/05 15:41:53;;;;;;;5.73;2.37;;;3.50;94.70;;;;;;5041900;28;20226;-81
2021/12/05 15:44:28;;;;;;;4.23;2.20;;;3.30;95.00;;;;;;5034590;28;20225;-82
2021/12/05 15:47:08;;;;;;;5.40;2.20;;;3.10;95.20;;;;;;5037539;28;20616;-81
2021/12/05 15:53:01;;;;;;;19.00;9.00;;;2.80;96.50;;;;;;5041305;28;20280;-81
2021/12/05 15:55:33;;;;;;;5.93;2.30;;;2.80;96.20;;;;;;5039940;28;20206;-81
2021/12/05 15:58:06;;;;;;;4.00;2.30;;;2.80;96.80;;;;;;5046934;28;20222;-81
2021/12/05 16:00:41;;;;;;;6.60;2.50;;;2.70;97.20;;;;;;5051306;28;20213;-81
2021/12/05 16:03:11;;;;;;;4.93;2.40;;;2.60;97.40;;;;;;5041337;28;20221;-82
2021/12/05 16:05:39;;;;;;;4.10;2.20;;;2.60;97.40;;;;;;5051051;28;20205;-81
2021/12/05 16:08:10;;;;;;;5.67;2.17;;;2.70;97.50;;;;;;5034588;28;20240;-83
2021/12/05 16:10:39;;;;;;;7.03;2.80;;;2.70;97.10;;;;;;5033827;28;20198;-83
2021/12/05 16:13:12;;;;;;;5.30;2.63;;;2.80;97.00;;;;;;5033661;28;20225;-82
2021/12/05 16:15:40;;;;;;;4.37;2.50;;;2.80;97.00;;;;;;5034912;28;20195;-83
2021/12/05 16:18:07;;;;;;;4.93;2.80;;;2.80;96.60;;;;;;5030936;28;20218;-83
2021/12/05 16:20:40;;;;;;;3.87;2.50;;;2.80;97.00;;;;;;5038636;28;20198;-82
2021/12/05 16:23:16;;;;;;;4.03;2.60;;;2.70;97.50;;;;;;5036377;28;20230;-83
2021/12/05 16:25:47;;;;;;;6.20;2.90;;;2.60;97.90;;;;;;5032752;28;20229;-82
2021/12/05 16:28:25;;;;;;;7.33;3.77;;;2.50;98.30;;;;;;5035872;28;20220;-82
2021/12/05 16:30:59;;;;;;;7.53;3.40;;;2.50;98.50;;;;;;5030630;28;20195;-83
2021/12/05 16:33:28;;;;;;;8.50;3.50;;;2.50;98.50;;;;;;5031418;28;20227;-82
2021/12/05 16:35:58;;;;;;;6.63;3.40;;;2.50;98.30;;;;;;5043410;28;20207;-82
2021/12/05 16:38:32;;;;;;;8.17;3.53;;;2.50;98.30;;;;;;5041075;28;20218;-82
2021/12/05 16:41:08;;;;;;;8.67;3.97;;;2.40;98.60;;;;;;5030118;28;20658;-81
2021/12/05 16:43:37;;;;;;;8.30;4.03;;;2.50;98.60;;;;;;5031912;28;20218;-82
2021/12/05 16:46:11;;;;;;;7.17;3.00;;;2.50;98.50;;;;;;5039654;28;20580;-81
2021/12/05 16:48:41;;;;;;;4.30;2.70;;;2.60;98.30;;;;;;5028641;28;20206;-81
2021/12/05 16:51:18;;;;;;;5.10;3.20;;;2.70;98.00;;;;;;5025787;28;20226;-84
2021/12/05 16:53:50;;;;;;;7.40;3.37;;;2.70;97.90;;;;;;5033979;28;20198;-83
2021/12/05 16:56:34;;;;;;;10.33;3.70;;;2.70;97.60;;;;;;5028953;28;20260;-87
2021/12/05 16:59:12;;;;;;;6.73;3.63;;;2.60;97.60;;;;;;5030641;28;20199;-83
2021/12/05 17:01:40;;;;;;;6.13;3.80;;;2.70;97.20;;;;;;5032734;28;20589;-82
2021/12/05 17:04:08;;;;;;;5.87;3.40;;;2.70;97.20;;;;;;5031449;28;20650;-81
2021/12/05 17:06:47;;;;;;;6.97;3.30;;;2.70;97.20;;;;;;5030840;28;20902;-85
2021/12/05 17:09:16;;;;;;;5.43;3.73;;;2.70;97.20;;;;;;5027892;28;20208;-81
2021/12/05 17:11:43;;;;;;;5.83;3.30;;;2.70;97.20;;;;;;5030624;28;20218;-81
2021/12/05 17:14:21;;;;;;;7.00;4.20;;;2.80;97.20;;;;;;5031322;28;20201;-88
2021/12/05 17:16:48;;;;;;;7.27;3.53;;;2.80;97.00;;;;;;5029352;28;20218;-81
2021/12/05 17:19:18;;;;;;;5.40;3.40;;;2.90;96.90;;;;;;5032839;28;20302;-85
2021/12/05 17:21:48;;;;;;;9.30;3.73;;;2.80;97.10;;;;;;5027974;28;20261;-82
2021/12/05 17:24:21;;;;;;;6.97;3.73;;;2.80;96.90;;;;;;5032853;28;20238;-82
2021/12/05 17:26:50;;;;;;;8.07;3.80;;;2.80;96.70;;;;;;5031129;28;20227;-84
2021/12/05 17:29:20;;;;;;;5.50;3.40;;;2.70;97.00;;;;;;5034485;28;20205;-89
2021/12/05 17:31:49;;;;;;;4.67;3.27;;;2.70;97.00;;;;;;5031435;28;20227;-81
2021/12/05 17:34:22;;;;;;;5.80;3.60;;;2.80;97.20;;;;;;5030494;28;20210;-90
2021/12/05 17:36:57;;;;;;;4.07;3.50;;;2.80;97.20;;;;;;5031076;28;20242;-85
2021/12/05 17:39:32;;;;;;;7.83;3.40;;;2.80;96.90;;;;;;5030591;28;20206;-82
2021/12/05 17:42:01;;;;;;;4.83;2.83;;;2.80;96.70;;;;;;5027514;28;20692;-81
2021/12/05 17:44:29;;;;;;;6.07;3.27;;;2.70;96.70;;;;;;5030056;28;20215;-83
2021/12/05 17:46:59;;;;;;;5.67;3.23;;;2.60;97.00;;;;;;5027453;28;20227;-85
2021/12/05 17:49:28;;;;;;;5.20;3.30;;;2.60;97.20;;;;;;5031917;28;20211;-82
2021/12/05 17:51:58;;;;;;;5.73;3.20;;;2.70;97.30;;;;;;5034804;28;20241;-83
2021/12/05 17:55:00;;;;;;;5.73;3.80;;;2.70;97.30;;;;;;5034688;28;20216;-83
2021/12/05 17:57:35;;;;;;;7.27;4.50;;;2.70;97.20;;;;;;5033746;28;20308;-83
2021/12/05 18:00:14;;;;;;;7.27;3.97;;;2.70;97.10;;;;;;5033764;28;20194;-83
2021/12/05 18:02:44;;;;;;;5.63;3.93;;;2.60;97.20;;;;;;5033800;28;20729;-85
2021/12/05 18:05:16;;;;;;;9.40;4.63;;;2.60;97.30;;;;;;5040231;28;20209;-85
2021/12/05 18:07:43;;;;;;;8.00;4.17;;;2.60;97.30;;;;;;5034312;28;20226;-89
2021/12/05 18:10:13;;;;;;;6.60;4.30;;;2.60;97.20;;;;;;5035593;28;20565;-83
2021/12/05 18:12:40;;;;;;;6.10;4.13;;;2.60;97.30;;;;;;5033859;28;20562;-82
2021/12/05 18:15:14;;;;;;;6.93;4.50;;;2.60;97.40;;;;;;5039660;28;20603;-82
2021/12/05 18:17:41;;;;;;;8.33;4.97;;;2.60;97.50;;;;;;5033928;28;20222;-82
2021/12/05 18:20:09;;;;;;;6.83;4.70;;;2.50;97.50;;;;;;5039641;28;20198;-88
2021/12/05 18:22:36;;;;;;;6.80;4.60;;;2.60;97.80;;;;;;5035630;28;20236;-82
2021/12/05 18:25:05;;;;;;;8.70;4.50;;;2.60;97.80;;;;;;5040895;28;20198;-86
2021/12/05 18:27:34;;;;;;;7.43;4.90;;;2.60;97.80;;;;;;5043650;28;20218;-83
2021/12/05 18:30:01;;;;;;;7.10;4.73;;;2.70;97.60;;;;;;5055731;28;20657;-84
2021/12/05 18:32:28;;;;;;;8.47;4.60;;;2.80;97.50;;;;;;5049267;28;20320;-86
2021/12/05 18:34:55;;;;;;;6.60;4.73;;;2.60;97.30;;;;;;5049433;28;20676;-86
2021/12/05 18:37:22;;;;;;;5.77;3.90;;;2.50;97.60;;;;;;5037159;28;20230;-85
2021/12/05 18:39:51;;;;;;;7.90;4.37;;;2.50;97.90;;;;;;5046820;28;20654;-87
2021/12/05 18:42:23;;;;;;;8.10;4.10;;;2.60;97.80;;;;;;5036315;28;20222;-88
2021/12/05 18:44:56;;;;;;;6.40;4.20;;;2.80;97.50;;;;;;5043286;28;20221;-88
2021/12/05 18:47:25;;;;;;;7.63;3.93;;;2.80;97.20;;;;;;5029973;28;20230;-87
2021/12/05 18:49:56;;;;;;;8.87;4.40;;;2.70;97.20;;;;;;5032339;28;20207;-83
2021/12/05 18:52:24;;;;;;;5.90;4.47;;;2.70;97.50;;;;;;5032356;28;20234;-85
2021/12/05 18:54:52;;;;;;;8.30;4.40;;;2.60;97.70;;;;;;5039714;28;20224;-83
2021/12/05 18:57:21;;;;;;;6.43;4.43;;;2.60;97.90;;;;;;5030741;28;20595;-86
2021/12/05 18:59:59;;;;;;;6.50;4.50;;;2.80;97.60;;;;;;5035341;28;20674;-86
2021/12/05 19:05:18;;;;;;;10.87;5.03;;;2.90;97.20;;;;;;5044162;28;20201;-89